Time;durP1;ratioP1;P1;durP2;ratioP2;P2;SDS_P1;SDS_P2;PMS_P1;PMS_P2;Temp;Humidity;BMP_temperature;BMP_pressure;BME280_temperature;BME280_humidity;BME280_pressure;Samples;Min_cycle;Max_cycle;Signal;HPM_P1;HPM_P2
2022/04/18 00:01:57;;;;;;;;;2.00;2.00;;;;;16.01;29.01;101438.78;5057395;28;45214;-43
2022/04/18 00:04:22;;;;;;;;;1.33;1.00;;;;;15.97;29.05;101432.09;5057093;28;45439;-46
2022/04/18 00:06:48;;;;;;;;;1.00;1.00;;;;;15.91;29.00;101430.91;5057559;28;45329;-47
2022/04/18 00:09:14;;;;;;;;;2.33;1.00;;;;;15.82;28.94;101418.47;5055546;28;45518;-45
2022/04/18 00:11:39;;;;;;;;;2.00;2.00;;;;;15.88;29.07;101427.69;5057193;28;45467;-45
2022/04/18 00:14:05;;;;;;;;;1.67;1.67;;;;;15.86;29.38;101427.03;5057647;28;45327;-45
2022/04/18 00:16:31;;;;;;;;;1.00;1.00;;;;;15.87;29.22;101423.34;5057420;28;45353;-46
2022/04/18 00:18:56;;;;;;;;;1.00;1.00;;;;;15.83;29.17;101417.47;5057266;28;45973;-45
2022/04/18 00:21:22;;;;;;;;;3.33;3.00;;;;;15.76;29.34;101412.91;5057230;28;45270;-46
2022/04/18 00:23:47;;;;;;;;;3.00;1.67;;;;;15.74;29.41;101418.47;5057339;28;45327;-45
2022/04/18 00:26:12;;;;;;;;;3.67;1.00;;;;;15.74;29.36;101415.78;5057458;28;45484;-44
2022/04/18 00:28:38;;;;;;;;;2.00;1.67;;;;;15.70;29.30;101401.84;5056922;28;46459;-45
2022/04/18 00:31:04;;;;;;;;;0.67;0.67;;;;;15.67;29.55;101406.69;5056845;28;45556;-44
2022/04/18 00:33:30;;;;;;;;;1.00;1.00;;;;;15.64;29.53;101396.28;5057244;28;45259;-46
2022/04/18 00:35:57;;;;;;;;;1.33;1.33;;;;;15.62;29.16;101404.47;5057177;28;45237;-44
2022/04/18 00:38:23;;;;;;;;;5.00;2.00;;;;;15.61;29.22;101400.13;5056766;28;46008;-45
2022/04/18 00:40:49;;;;;;;;;1.33;1.33;;;;;15.56;29.49;101390.91;5056563;28;45320;-45
2022/04/18 00:43:15;;;;;;;;;1.00;1.00;;;;;15.52;29.46;101398.44;5056745;28;45324;-44
2022/04/18 00:45:41;;;;;;;;;2.67;2.00;;;;;15.54;29.32;101408.97;5056848;28;45372;-44
2022/04/18 00:48:06;;;;;;;;;1.67;1.67;;;;;15.49;29.15;101393.38;5056676;28;46106;-45
2022/04/18 00:50:33;;;;;;;;;2.00;2.00;;;;;15.54;29.13;101396.41;5056588;28;45397;-47
2022/04/18 00:52:59;;;;;;;;;1.00;1.00;;;;;15.48;29.02;101397.06;5056710;28;45296;-48
2022/04/18 00:55:27;;;;;;;;;3.00;2.00;;;;;15.45;29.22;101383.97;5056669;28;45547;-47
2022/04/18 00:57:54;;;;;;;;;1.00;1.00;;;;;15.48;29.50;101387.19;5056251;28;46399;-45
2022/04/18 01:00:21;;;;;;;;;1.67;1.67;;;;;15.44;29.56;101385.00;5056618;28;45435;-44
2022/04/18 01:02:46;;;;;;;;;2.00;2.00;;;;;15.43;29.74;101388.69;5056672;28;45290;-45
2022/04/18 01:05:14;;;;;;;;;1.00;1.00;;;;;15.44;29.63;101390.34;5056813;28;45399;-48
2022/04/18 01:07:40;;;;;;;;;4.00;1.33;;;;;15.45;29.68;101389.34;5056365;28;46079;-46
2022/04/18 01:10:07;;;;;;;;;1.00;1.00;;;;;15.43;29.73;101384.16;5056079;28;45335;-45
2022/04/18 01:12:33;;;;;;;;;4.00;2.00;;;;;15.42;29.61;101382.47;5056557;28;45471;-46
2022/04/18 01:14:59;;;;;;;;;3.00;1.67;;;;;15.40;29.51;101386.31;5056461;28;45466;-46
2022/04/18 01:17:25;;;;;;;;;4.00;2.00;;;;;15.33;29.85;101378.06;5056378;28;45270;-45
2022/04/18 01:19:51;;;;;;;;;2.00;2.00;;;;;15.31;29.74;101392.66;5056410;28;45395;-45
2022/04/18 01:22:18;;;;;;;;;1.00;1.00;;;;;15.29;30.14;101381.25;5056491;28;45410;-44
2022/04/18 01:30:14;;;;;;;;;1.00;1.00;;;;;15.22;29.70;101381.06;5013948;28;45379;-47
2022/04/18 01:32:40;;;;;;;;;2.00;2.00;;;;;15.19;30.03;101379.53;5013890;28;45374;-45
2022/04/18 01:35:06;;;;;;;;;1.00;1.00;;;;;15.15;30.04;101380.84;5017568;28;45405;-46
2022/04/18 01:37:31;;;;;;;;;1.00;1.00;;;;;15.06;30.21;101363.06;5017277;28;45409;-45
2022/04/18 01:39:57;;;;;;;;;3.67;2.00;;;;;15.06;30.23;101370.28;5017183;28;45255;-45
2022/04/18 01:42:22;;;;;;;;;1.00;1.00;;;;;15.01;30.42;101370.75;5017313;28;45389;-45
2022/04/18 01:44:48;;;;;;;;;1.33;1.33;;;;;14.97;30.59;101372.91;5017542;28;45249;-47
2022/04/18 01:47:13;;;;;;;;;2.00;1.00;;;;;14.96;30.58;101368.56;5017045;28;46841;-45
2022/04/18 01:49:38;;;;;;;;;2.00;2.00;;;;;14.88;30.17;101368.50;5016992;28;45445;-46
2022/04/18 01:52:04;;;;;;;;;1.00;1.00;;;;;14.85;30.29;101365.31;5017286;28;45454;-45
2022/04/18 01:54:29;;;;;;;;;1.67;1.67;;;;;14.80;30.47;101368.47;5017334;28;45560;-47
2022/04/18 01:56:55;;;;;;;;;0.67;0.67;;;;;14.76;30.64;101360.91;5016617;28;45466;-44
2022/04/18 01:59:20;;;;;;;;;2.00;2.00;;;;;14.69;30.96;101363.38;5017058;28;45402;-45
2022/04/18 02:01:45;;;;;;;;;2.00;2.00;;;;;14.63;30.88;101361.34;5000327;28;45553;-45
2022/04/18 02:04:11;;;;;;;;;2.00;2.00;;;;;14.57;30.78;101352.09;5031179;28;45381;-45
2022/04/18 02:06:36;;;;;;;;;2.00;1.00;;;;;14.57;31.15;101360.13;5059034;28;45990;-45
2022/04/18 02:09:02;;;;;;;;;2.00;2.00;;;;;14.50;31.57;101356.41;5058895;28;45414;-45
2022/04/18 02:11:27;;;;;;;;;1.00;1.00;;;;;14.44;31.02;101355.16;5058965;28;45324;-45
2022/04/18 02:13:53;;;;;;;;;1.67;1.00;;;;;14.36;31.73;101335.50;5059173;28;45388;-45
2022/04/18 02:16:19;;;;;;;;;1.00;1.00;;;;;14.45;31.52;101348.81;5058754;28;46195;-46
2022/04/18 02:18:46;;;;;;;;;2.00;2.00;;;;;14.47;31.39;101357.53;5058863;28;45342;-44
2022/04/18 02:21:12;;;;;;;;;3.00;1.33;;;;;14.48;31.65;101350.31;5058861;28;45463;-45
2022/04/18 02:23:41;;;;;;;;;2.00;2.00;;;;;14.38;31.62;101339.72;5057703;28;45477;-44
2022/04/18 02:26:07;;;;;;;;;1.00;1.00;;;;;14.46;31.68;101347.81;5058653;28;46950;-44
2022/04/18 02:28:33;;;;;;;;;3.00;1.00;;;;;14.43;31.97;101352.63;5058360;28;45372;-47
2022/04/18 02:30:58;;;;;;;;;2.33;2.00;;;;;14.41;31.61;101346.59;5058662;28;45364;-47
2022/04/18 02:33:24;;;;;;;;;2.00;2.00;;;;;14.34;31.69;101337.53;5057428;28;45460;-47
2022/04/18 02:35:49;;;;;;;;;1.00;1.00;;;;;14.36;31.32;101346.22;5058455;28;45300;-44
2022/04/18 02:38:16;;;;;;;;;2.00;1.00;;;;;14.31;31.59;101338.66;5058431;28;45241;-45
2022/04/18 02:40:42;;;;;;;;;2.00;2.00;;;;;14.20;31.52;101328.22;5058363;28;45224;-45
2022/04/18 02:43:08;;;;;;;;;1.00;1.00;;;;;14.25;32.11;101338.47;5058304;28;45204;-46
2022/04/18 02:45:33;;;;;;;;;1.67;1.67;;;;;14.17;32.14;101321.34;5057070;28;46158;-46
2022/04/18 02:47:59;;;;;;;;;2.33;2.00;;;;;14.21;31.89;101336.09;5058076;28;45314;-44
2022/04/18 02:50:25;;;;;;;;;2.00;2.00;;;;;14.16;32.27;101332.22;5058239;28;45423;-44
2022/04/18 02:52:51;;;;;;;;;2.67;2.00;;;;;14.15;32.29;101328.69;5058372;28;45329;-46
2022/04/18 02:55:17;;;;;;;;;1.00;1.00;;;;;14.14;32.41;101327.00;5057977;28;46177;-48
2022/04/18 02:57:42;;;;;;;;;2.00;2.00;;;;;14.10;32.34;101328.31;5057537;28;45471;-44
2022/04/18 03:00:11;;;;;;;;;1.67;1.67;;;;;14.07;32.80;101333.13;5058246;28;45479;-45
2022/04/18 03:02:40;;;;;;;;;3.00;3.00;;;;;14.04;32.74;101336.13;5058214;28;45461;-47
2022/04/18 03:05:07;;;;;;;;;1.33;1.33;;;;;14.02;32.58;101327.41;5057735;28;47507;-44
2022/04/18 03:07:33;;;;;;;;;2.00;2.00;;;;;13.98;33.21;101337.56;5057968;28;45350;-45
2022/04/18 03:09:59;;;;;;;;;1.33;1.00;;;;;13.96;33.16;101339.56;5057724;28;45316;-45
2022/04/18 03:12:24;;;;;;;;;3.67;3.00;;;;;13.93;33.54;101338.03;5057849;28;45520;-45
2022/04/18 03:14:49;;;;;;;;;2.00;2.00;;;;;13.93;33.47;101339.88;5057883;28;46309;-45
2022/04/18 03:17:16;;;;;;;;;2.00;2.00;;;;;13.89;33.00;101323.28;5057672;28;45356;-44
2022/04/18 03:19:41;;;;;;;;;2.00;2.00;;;;;13.89;32.52;101333.16;5057702;28;45230;-44
2022/04/18 03:22:07;;;;;;;;;1.00;1.00;;;;;13.84;32.51;101330.09;5057703;28;45515;-44
2022/04/18 03:24:33;;;;;;;;;1.00;1.00;;;;;13.77;32.55;101326.34;5057595;28;45521;-46
2022/04/18 03:27:00;;;;;;;;;1.33;1.33;;;;;13.76;32.86;101322.84;5057615;28;45336;-44
2022/04/18 03:29:25;;;;;;;;;3.00;2.00;;;;;13.60;32.64;101314.66;5057422;28;45257;-43
2022/04/18 03:31:51;;;;;;;;;2.00;2.00;;;;;13.70;33.20;101323.47;5057752;28;45450;-44
2022/04/18 03:34:16;;;;;;;;;1.00;1.00;;;;;13.59;33.62;101316.50;5057806;28;45392;-45
2022/04/18 03:42:10;;;;;;;;;1.00;1.00;;;;;13.61;32.56;101329.69;5057798;28;45332;-45
2022/04/18 03:44:45;;;;;;;;;1.33;1.33;;;;;13.55;33.08;101323.13;5057320;28;46122;-44
2022/04/18 03:47:11;;;;;;;;;3.67;2.00;;;;;13.51;32.77;101316.41;5057542;28;45320;-44
2022/04/18 03:49:38;;;;;;;;;1.00;1.00;;;;;13.54;33.14;101324.13;5057750;28;45332;-45
2022/04/18 03:52:03;;;;;;;;;1.33;1.33;;;;;13.42;33.54;101302.13;5057693;28;45451;-44
2022/04/18 03:54:29;;;;;;;;;3.33;2.00;;;;;13.50;32.97;101316.59;5057102;28;46265;-46
2022/04/18 03:56:54;;;;;;;;;3.00;2.00;;;;;13.48;33.36;101308.69;5056986;28;45336;-45
2022/04/18 03:59:19;;;;;;;;;3.33;2.00;;;;;13.43;33.11;101314.50;5057432;28;45206;-45
2022/04/18 04:01:45;;;;;;;;;5.67;2.67;;;;;13.40;33.16;101312.16;5057737;28;45392;-45
2022/04/18 04:04:10;;;;;;;;;2.00;2.00;;;;;13.36;33.18;101317.94;5057110;28;46607;-45
2022/04/18 04:06:35;;;;;;;;;2.00;2.00;;;;;13.37;33.59;101314.28;5057158;28;45261;-47
2022/04/18 04:09:01;;;;;;;;;3.00;3.00;;;;;13.36;33.19;101315.28;5057442;28;45356;-46
2022/04/18 04:11:26;;;;;;;;;2.33;1.33;;;;;13.33;34.03;101311.06;5057534;28;45293;-44
2022/04/18 04:13:52;;;;;;;;;2.33;2.33;;;;;13.32;33.50;101313.91;5056920;28;46195;-45
2022/04/18 04:16:18;;;;;;;;;3.67;2.00;;;;;13.29;32.99;101303.50;5057124;28;45531;-46
2022/04/18 04:18:44;;;;;;;;;2.00;2.00;;;;;13.28;33.50;101312.50;5057223;28;45412;-46
2022/04/18 04:21:09;;;;;;;;;2.00;2.00;;;;;13.19;33.53;101299.03;5057231;28;45257;-46
2022/04/18 04:23:34;;;;;;;;;2.00;2.00;;;;;13.21;33.90;101314.91;5056841;28;46247;-43
2022/04/18 04:26:00;;;;;;;;;3.00;3.00;;;;;13.19;33.75;101311.56;5057375;28;45405;-45
2022/04/18 04:28:25;;;;;;;;;4.00;3.67;;;;;13.18;33.66;101312.53;5056800;28;45292;-44
2022/04/18 04:30:50;;;;;;;;;2.00;2.00;;;;;13.12;34.22;101313.97;5057295;28;45409;-45
2022/04/18 04:33:16;;;;;;;;;2.00;2.00;;;;;13.12;34.23;101316.63;5056961;28;46376;-45
2022/04/18 04:35:41;;;;;;;;;3.00;2.00;;;;;13.07;34.29;101305.56;5056904;28;45304;-44
2022/04/18 04:38:07;;;;;;;;;5.33;2.00;;;;;13.12;34.69;101318.47;5057191;28;45702;-47
2022/04/18 04:40:32;;;;;;;;;2.00;2.00;;;;;13.07;34.56;101318.91;5057193;28;45309;-44
2022/04/18 04:42:57;;;;;;;;;4.67;2.33;;;;;13.02;34.61;101318.53;5056673;28;45399;-44
2022/04/18 04:45:23;;;;;;;;;4.00;3.00;;;;;13.01;34.66;101321.34;5056799;28;45368;-46
2022/04/18 04:47:48;;;;;;;;;2.67;2.33;;;;;12.97;34.85;101326.13;5056954;28;45234;-45
2022/04/18 04:50:13;;;;;;;;;2.33;2.00;;;;;12.97;35.24;101323.44;5057148;28;45285;-46
2022/04/18 04:52:39;;;;;;;;;2.00;2.00;;;;;12.94;34.85;101316.59;5056749;28;46095;-44
2022/04/18 04:55:06;;;;;;;;;3.00;3.00;;;;;12.96;34.72;101325.28;5057047;28;45506;-45
2022/04/18 04:57:32;;;;;;;;;4.33;3.33;;;;;12.90;34.60;101311.72;5057176;28;45209;-44
2022/04/18 04:59:57;;;;;;;;;4.00;2.00;;;;;12.96;35.31;101322.63;5055767;28;45424;-45
2022/04/18 05:02:24;;;;;;;;;2.00;2.00;;;;;12.93;35.08;101319.41;5056779;28;46223;-49
2022/04/18 05:04:49;;;;;;;;;2.00;2.00;;;;;12.91;35.46;101318.72;5056774;28;44847;-48
2022/04/18 05:07:14;;;;;;;;;3.00;3.00;;;;;12.91;35.20;101316.06;5056624;28;45404;-44
2022/04/18 05:09:40;;;;;;;;;2.33;2.33;;;;;12.92;34.99;101325.75;5059461;28;45289;-45
2022/04/18 05:12:05;;;;;;;;;4.00;2.00;;;;;12.91;35.14;101324.06;5059968;28;46258;-44
2022/04/18 05:14:31;;;;;;;;;3.00;3.00;;;;;12.89;35.72;101315.34;5059946;28;45340;-44
2022/04/18 05:16:56;;;;;;;;;5.33;3.00;;;;;12.89;35.73;101313.53;5060174;28;45253;-43
2022/04/18 05:19:22;;;;;;;;;2.00;2.00;;;;;12.89;35.00;101321.56;5060437;28;45320;-44
2022/04/18 05:21:48;;;;;;;;;3.67;2.00;;;;;12.84;35.09;101325.63;5059863;28;46223;-44
2022/04/18 05:24:13;;;;;;;;;4.00;2.67;;;;;12.85;35.01;101328.16;5059640;28;45326;-45
2022/04/18 05:26:38;;;;;;;;;2.00;2.00;;;;;12.86;35.58;101335.19;5060205;28;45252;-44
2022/04/18 05:29:04;;;;;;;;;3.00;0.00;;;;;12.87;35.41;101331.53;5058564;28;45338;-44
2022/04/18 05:31:29;;;;;;;;;2.67;2.33;;;;;12.88;35.26;101341.22;5059618;28;45348;-45
2022/04/18 05:33:55;;;;;;;;;2.00;2.00;;;;;12.88;34.86;101335.88;5059963;28;45257;-44
2022/04/18 05:36:21;;;;;;;;;2.67;2.67;;;;;12.86;35.81;101335.19;5059649;28;45340;-44
2022/04/18 05:38:46;;;;;;;;;4.00;4.00;;;;;12.86;34.97;101329.00;5059796;28;45416;-44
2022/04/18 05:41:12;;;;;;;;;2.67;2.67;;;;;12.90;35.52;101341.09;5059384;28;47027;-46
2022/04/18 05:43:37;;;;;;;;;2.33;2.33;;;;;12.83;35.68;101335.47;5059398;28;45353;-47
2022/04/18 05:46:03;;;;;;;;;2.00;2.00;;;;;12.89;35.41;101337.56;5059445;28;45355;-45
2022/04/18 05:48:28;;;;;;;;;2.00;2.00;;;;;12.91;35.40;101348.94;5059698;28;45319;-44
2022/04/18 05:50:53;;;;;;;;;1.00;1.00;;;;;12.96;35.69;101343.16;5059296;28;46099;-46
2022/04/18 05:53:24;;;;;;;;;3.00;3.00;;;;;12.97;34.43;101352.84;5059314;28;45412;-45
2022/04/18 05:55:49;;;;;;;;;3.00;3.00;;;;;12.91;35.21;101356.94;5059497;28;45312;-44
2022/04/18 05:58:15;;;;;;;;;6.33;2.67;;;;;12.95;34.31;101354.81;5059379;28;45574;-45
2022/04/18 06:00:40;;;;;;;;;4.67;3.00;;;;;12.91;34.88;101364.13;5059034;28;47322;-44
2022/04/18 06:03:05;;;;;;;;;6.67;2.00;;;;;12.86;34.82;101350.38;5059191;28;45504;-45
2022/04/18 06:05:32;;;;;;;;;2.00;2.00;;;;;12.96;34.52;101359.16;5059381;28;45687;-45
2022/04/18 06:07:58;;;;;;;;;4.00;3.00;;;;;12.89;35.07;101352.72;5059296;28;45367;-47
2022/04/18 06:10:23;;;;;;;;;2.00;2.00;;;;;12.90;35.11;101351.75;5058919;28;46102;-44
2022/04/18 06:12:49;;;;;;;;;6.00;4.00;;;;;13.00;35.70;101357.88;5059077;28;45481;-44
2022/04/18 06:15:14;;;;;;;;;3.00;3.00;;;;;13.05;35.17;101368.97;5058997;28;45367;-47
2022/04/18 06:17:40;;;;;;;;;2.00;2.00;;;;;13.06;35.38;101376.00;5059238;28;45300;-44
2022/04/18 06:20:08;;;;;;;;;3.00;3.00;;;;;13.08;35.03;101371.34;5058673;28;46252;-43
2022/04/18 06:22:33;;;;;;;;;2.67;2.67;;;;;13.10;34.55;101369.34;5059185;28;45339;-45
2022/04/18 06:24:58;;;;;;;;;3.33;3.33;;;;;13.05;34.36;101368.97;5059089;28;45342;-45
2022/04/18 06:27:24;;;;;;;;;2.00;2.00;;;;;13.05;34.93;101360.13;5059192;28;45425;-46
2022/04/18 06:29:49;;;;;;;;;3.33;2.00;;;;;13.14;34.82;101369.91;5058834;28;45259;-45
2022/04/18 06:32:15;;;;;;;;;5.33;3.00;;;;;13.06;34.40;101349.31;5058505;28;45510;-44
2022/04/18 06:34:40;;;;;;;;;5.33;3.33;;;;;13.22;34.37;101375.34;5058808;28;45350;-44
2022/04/18 06:37:06;;;;;;;;;4.67;3.00;;;;;13.28;33.78;101371.28;5059115;28;45243;-46
2022/04/18 06:39:31;;;;;;;;;2.00;2.00;;;;;13.36;34.46;101368.72;5058537;28;46264;-47
2022/04/18 06:41:57;;;;;;;;;3.00;3.00;;;;;13.51;33.89;101377.06;5058658;28;45398;-45
2022/04/18 06:44:23;;;;;;;;;4.00;4.00;;;;;13.65;33.92;101377.41;5058556;28;45320;-45
2022/04/18 06:46:48;;;;;;;;;2.33;2.33;;;;;13.79;33.90;101369.84;5058733;28;45922;-46
2022/04/18 06:49:14;;;;;;;;;3.33;3.33;;;;;13.92;34.24;101373.81;5057066;28;45397;-45
2022/04/18 06:51:39;;;;;;;;;3.00;3.00;;;;;14.06;33.65;101371.56;5058543;28;45388;-45
2022/04/18 06:54:04;;;;;;;;;2.00;2.00;;;;;14.20;33.99;101374.56;5058535;28;45295;-45
2022/04/18 06:59:14;;;;;;;;;2.67;2.00;;;;;14.36;32.60;101364.97;5057911;28;45776;-45
2022/04/18 07:01:39;;;;;;;;;4.00;4.00;;;;;14.44;33.18;101365.84;5057883;28;45436;-45
2022/04/18 07:04:06;;;;;;;;;6.33;3.33;;;;;14.59;32.71;101363.50;5057941;28;45409;-45
2022/04/18 07:06:32;;;;;;;;;3.00;3.00;;;;;14.73;32.52;101372.78;5058113;28;45367;-47
2022/04/18 07:08:57;;;;;;;;;3.00;3.00;;;;;15.08;32.31;101370.94;5057528;28;46154;-45
2022/04/18 07:11:23;;;;;;;;;4.00;2.33;;;;;15.70;31.43;101315.19;5057788;28;45459;-47
2022/04/18 07:13:48;;;;;;;;;3.67;3.67;;;;;17.45;29.77;101356.44;5057996;28;45293;-47
2022/04/18 07:16:13;;;;;;;;;6.00;4.00;;;;;18.65;27.74;101361.22;5056393;28;45496;-47
2022/04/18 07:18:39;;;;;;;;;3.67;3.00;;;;;19.51;26.66;101353.44;5058179;28;45335;-45
2022/04/18 07:21:04;;;;;;;;;3.67;3.67;;;;;20.16;26.32;101353.31;5056985;28;45310;-45
2022/04/18 07:23:30;;;;;;;;;7.00;3.00;;;;;20.89;25.53;101353.00;5058034;28;45412;-45
2022/04/18 07:25:56;;;;;;;;;6.00;4.00;;;;;21.41;24.52;101354.31;5057751;28;45426;-45
2022/04/18 07:28:21;;;;;;;;;5.00;4.00;;;;;21.61;24.46;101357.06;5057315;28;46420;-45
2022/04/18 07:30:47;;;;;;;;;8.67;5.00;;;;;22.45;23.16;101342.97;5057057;28;45428;-45
2022/04/18 07:33:14;;;;;;;;;3.33;3.33;;;;;23.17;23.16;101354.69;5057207;28;45613;-43
2022/04/18 07:35:40;;;;;;;;;7.33;7.00;;;;;23.96;21.66;101350.72;5056960;28;45495;-44
2022/04/18 07:40:49;;;;;;;;;4.00;4.00;;;;;25.14;20.34;101342.50;5057425;28;45445;-46
2022/04/18 07:43:14;;;;;;;;;9.00;6.25;;;;;25.58;20.79;101351.34;5057411;28;45312;-47
2022/04/18 07:45:40;;;;;;;;;5.00;5.00;;;;;25.96;19.53;101347.47;5057129;28;45431;-46
2022/04/18 07:48:07;;;;;;;;;5.75;4.25;;;;;26.07;19.72;101337.63;5056919;28;45417;-45
2022/04/18 07:53:17;;;;;;;;;5.50;5.25;;;;;25.81;19.91;101341.63;5057408;28;45350;-45
2022/04/18 07:55:42;;;;;;;;;6.00;5.00;;;;;25.43;20.33;101344.66;5057438;28;45344;-46
2022/04/18 07:58:08;;;;;;;;;4.25;4.25;;;;;24.74;22.63;101341.28;5056916;28;46142;-46
2022/04/18 08:00:33;;;;;;;;;8.00;5.00;;;;;24.38;21.44;101341.00;5057158;28;45356;-49
2022/04/18 08:02:58;;;;;;;;;8.50;7.00;;;;;24.62;21.39;101350.19;5056914;28;45401;-45
2022/04/18 08:05:24;;;;;;;;;5.50;5.50;;;;;24.73;21.61;101345.03;5057328;28;45277;-48
2022/04/18 08:07:49;;;;;;;;;6.00;5.00;;;;;24.91;20.86;101344.25;5056794;28;46309;-46
2022/04/18 08:10:15;;;;;;;;;3.75;3.75;;;;;25.13;21.27;101343.56;5056664;28;45320;-46
2022/04/18 08:12:40;;;;;;;;;5.50;5.00;;;;;25.23;21.18;101348.47;5057174;28;45417;-47
2022/04/18 08:15:08;;;;;;;;;8.25;6.75;;;;;25.54;20.90;101347.44;5056914;28;45340;-45
2022/04/18 08:17:33;;;;;;;;;6.75;6.75;;;;;25.56;20.31;101342.56;5056769;28;45483;-46
2022/04/18 08:19:59;;;;;;;;;6.50;4.75;;;;;25.47;21.03;101343.97;5056912;28;45259;-46
2022/04/18 08:22:24;;;;;;;;;9.00;5.75;;;;;25.32;20.87;101308.94;5057025;28;45176;-46
2022/04/18 08:24:49;;;;;;;;;5.00;5.00;;;;;25.65;20.71;101345.78;5057135;28;45294;-46
2022/04/18 08:27:14;;;;;;;;;6.25;5.00;;;;;25.83;20.03;101340.31;5056677;28;46410;-44
2022/04/18 08:29:40;;;;;;;;;6.75;5.25;;;;;25.95;19.90;101331.31;5056924;28;45376;-45
2022/04/18 08:32:05;;;;;;;;;6.75;4.50;;;;;26.72;20.12;101337.56;5056684;28;45489;-47
2022/04/18 08:34:31;;;;;;;;;5.00;5.00;;;;;28.70;18.08;101325.81;5056983;28;45410;-46
2022/04/18 08:36:56;;;;;;;;;7.00;6.00;;;;;30.58;17.15;101328.78;5056385;28;46908;-45
2022/04/18 08:39:22;;;;;;;;;5.00;3.50;;;;;32.40;14.83;101329.47;5056415;28;45434;-47
2022/04/18 08:41:51;;;;;;;;;5.75;4.50;;;;;33.83;13.55;101320.50;5056967;28;45305;-50
2022/04/18 08:44:19;;;;;;;;;7.40;7.40;;;;;34.57;12.93;101323.97;5059183;28;45613;-47
2022/04/18 08:46:46;;;;;;;;;6.40;5.20;;;;;34.79;12.65;101325.38;5059926;28;46300;-47
2022/04/18 08:54:42;;;;;;;;;3.80;3.60;;;;;35.78;12.41;101313.47;5060657;28;45410;-45
2022/04/18 08:57:08;;;;;;;;;5.60;5.00;;;;;36.29;11.99;101318.97;5058433;28;47417;-46
2022/04/18 08:59:33;;;;;;;;;5.75;5.75;;;;;36.45;11.64;101320.34;5060172;28;45424;-48
2022/04/18 09:01:59;;;;;;;;;5.25;3.75;;;;;36.21;12.08;101319.66;5060226;28;45325;-44
2022/04/18 09:04:25;;;;;;;;;5.50;5.00;;;;;35.42;11.80;101322.31;5060203;28;45523;-47
2022/04/18 09:06:52;;;;;;;;;6.20;5.00;;;;;34.73;12.83;101321.88;5059895;28;46091;-47
2022/04/18 09:09:28;;;;;;;;;5.80;5.40;;;;;34.40;13.13;101320.84;5059943;28;45248;-46
2022/04/18 09:11:54;;;;;;;;;6.00;5.00;;;;;34.50;13.29;101321.56;5060028;28;45333;-45
2022/04/18 09:14:20;;;;;;;;;7.50;7.00;;;;;34.67;13.00;101311.97;5060312;28;45248;-45
2022/04/18 09:16:45;;;;;;;;;7.00;5.60;;;;;35.44;12.39;101309.00;5059628;28;47468;-46
2022/04/18 09:19:12;;;;;;;;;8.25;5.50;;;;;35.43;12.30;101318.41;5059646;28;45479;-45
2022/04/18 09:21:58;;;;;;;;;10.40;7.40;;;;;35.45;12.57;101305.94;5059685;28;45366;-45
2022/04/18 09:24:37;;;;;;;;;7.00;7.00;;;;;35.22;12.34;101312.38;5059875;28;45422;-46
2022/04/18 09:27:27;;;;;;;;;7.00;7.00;;;;;35.03;12.19;101311.56;5059660;28;45404;-46
2022/04/18 09:30:09;;;;;;;;;9.40;7.80;;;;;34.95;13.45;101307.47;5059611;28;45342;-49
2022/04/18 09:32:35;;;;;;;;;7.60;7.60;;;;;35.36;12.50;101316.06;5059966;28;45360;-47
2022/04/18 09:35:03;;;;;;;;;9.25;9.00;;;;;36.16;12.47;101315.03;5059930;28;45566;-49
2022/04/18 09:37:30;;;;;;;;;10.00;8.80;;;;;37.38;11.88;101300.59;5059531;28;46992;-44
2022/04/18 09:39:56;;;;;;;;;10.40;8.80;;;;;37.91;11.07;101290.72;5059698;28;45267;-50
2022/04/18 09:42:26;;;;;;;;;7.80;7.60;;;;;38.75;10.97;101297.28;5059851;28;45341;-47
2022/04/18 09:44:52;;;;;;;;;0.80;0.80;;;;;39.37;10.54;101288.72;5059788;28;45393;-45
2022/04/18 09:47:21;;;;;;;;;8.00;8.00;;;;;39.59;10.37;101296.06;5059330;28;45740;-45
2022/04/18 09:49:47;;;;;;;;;10.00;9.40;;;;;39.50;9.50;101296.09;5059275;28;45525;-44
2022/04/18 09:52:18;;;;;;;;;10.20;8.60;;;;;39.41;10.26;101295.28;5059659;28;45217;-44
2022/04/18 09:54:55;;;;;;;;;9.60;9.60;;;;;39.08;10.61;101287.38;5059045;28;45492;-48
2022/04/18 09:57:25;;;;;;;;;7.60;7.60;;;;;38.75;10.94;101297.28;5059482;28;45361;-44
2022/04/18 09:59:52;;;;;;;;;9.20;8.00;;;;;38.84;10.14;101292.59;5059337;28;45451;-44
2022/04/18 10:02:18;;;;;;;;;8.00;6.60;;;;;39.47;9.98;101291.16;5059500;28;45383;-46
2022/04/18 10:04:44;;;;;;;;;8.00;5.25;;;;;40.57;9.61;101297.91;5059472;28;45478;-46
2022/04/18 10:07:13;;;;;;;;;6.00;5.00;;;;;41.82;8.49;101291.56;5059029;28;45918;-45
2022/04/18 10:09:40;;;;;;;;;8.20;7.40;;;;;42.49;8.67;101292.22;5059364;28;45245;-46
2022/04/18 10:12:08;;;;;;;;;10.60;8.20;;;;;42.32;9.00;101267.28;5059452;28;45408;-45
2022/04/18 10:14:34;;;;;;;;;8.00;6.80;;;;;42.15;8.89;101276.69;5059593;28;45345;-45
2022/04/18 10:17:01;;;;;;;;;7.75;6.75;;;;;42.01;9.54;101276.19;5059297;28;46276;-45
2022/04/18 10:19:57;;;;;;;;;9.00;7.00;;;;;42.04;9.26;101278.31;5058852;28;45396;-46
2022/04/18 10:22:41;;;;;;;;;8.20;8.20;;;;;42.04;9.35;101278.31;5059216;28;45230;-44
2022/04/18 10:25:44;;;;;;;;;7.80;6.80;;;;;41.58;9.18;101280.28;5059452;28;45505;-44
2022/04/18 10:28:17;;;;;;;;;8.00;8.00;;;;;41.05;8.64;101282.72;5057719;28;46998;-49
2022/04/18 10:30:48;;;;;;;;;7.80;7.80;;;;;41.18;9.45;101278.00;5058916;28;45390;-46
2022/04/18 10:33:14;;;;;;;;;7.00;7.00;;;;;41.53;9.40;101275.72;5058940;28;45215;-45
2022/04/18 10:36:00;;;;;;;;;9.00;8.40;;;;;41.59;9.04;101263.19;5058745;28;45336;-47
2022/04/18 10:38:27;;;;;;;;;5.80;5.80;;;;;41.58;9.07;101271.91;5058739;28;46479;-44
2022/04/18 10:43:53;;;;;;;;;13.60;13.00;;;;;41.81;8.77;101269.56;5058821;28;45491;-44
2022/04/18 10:46:19;;;;;;;;;9.00;8.00;;;;;42.36;8.83;101271.84;5059072;28;45430;-45
2022/04/18 10:48:56;;;;;;;;;8.40;8.20;;;;;42.67;8.75;101270.44;5058453;28;47461;-46
2022/04/18 10:51:36;;;;;;;;;6.20;6.20;;;;;42.88;8.51;101266.66;5058761;28;45289;-48
2022/04/18 10:54:06;;;;;;;;;7.60;7.60;;;;;43.21;8.26;101258.88;5058606;28;45310;-48
2022/04/18 10:56:59;;;;;;;;;6.20;5.80;;;;;42.97;8.88;101256.94;5058726;28;45454;-47
2022/04/18 10:59:28;;;;;;;;;6.00;6.00;;;;;42.76;8.50;101257.13;5058214;28;46183;-50
2022/04/18 11:01:55;;;;;;;;;5.20;5.20;;;;;42.58;8.23;101252.94;5058376;28;45483;-50
2022/04/18 11:04:44;;;;;;;;;9.00;7.00;;;;;42.41;8.82;101251.22;5058408;28;45277;-50
2022/04/18 11:07:11;;;;;;;;;7.20;7.00;;;;;42.19;8.61;101248.88;5015358;28;45632;-47
2022/04/18 11:09:46;;;;;;;;;7.60;7.00;;;;;42.08;9.16;101249.31;5015808;28;46260;-47
2022/04/18 11:12:16;;;;;;;;;6.60;6.60;;;;;41.92;9.01;101247.56;5015766;28;45468;-48
2022/04/18 11:14:47;;;;;;;;;6.40;6.40;;;;;41.39;9.19;101252.88;5016314;28;45605;-48
2022/04/18 11:17:13;;;;;;;;;7.00;7.00;;;;;40.77;9.33;101248.09;5016246;28;45438;-50
2022/04/18 11:19:39;;;;;;;;;6.00;4.20;;;;;40.18;9.53;101250.88;5015663;28;47276;-49
2022/04/18 11:22:07;;;;;;;;;5.00;5.00;;;;;40.13;9.15;101246.31;5015903;28;45447;-46
2022/04/18 11:24:52;;;;;;;;;4.00;4.00;;;;;40.62;9.47;101241.97;5015791;28;45459;-50
2022/04/18 11:27:22;;;;;;;;;4.20;4.20;;;;;40.98;9.15;101242.56;5015832;28;45478;-49
2022/04/18 11:29:53;;;;;;;;;5.80;5.80;;;;;41.40;8.90;101234.16;5015484;28;47061;-51
2022/04/18 11:32:20;;;;;;;;;5.40;4.00;;;;;41.52;9.20;101236.97;5014972;28;45388;-47
2022/04/18 11:34:51;;;;;;;;;6.00;5.00;;;;;41.18;8.60;101236.13;5015392;28;45424;-49
2022/04/18 11:37:31;;;;;;;;;4.40;4.40;;;;;40.93;8.70;101237.16;5015865;28;45364;-49
2022/04/18 11:39:58;;;;;;;;;4.20;3.80;;;;;40.80;8.87;101230.69;5015456;28;45519;-47
2022/04/18 11:42:29;;;;;;;;;6.40;5.00;;;;;40.83;9.13;101230.00;5015349;28;45452;-46
2022/04/18 11:44:57;;;;;;;;;3.00;3.00;;;;;41.10;8.59;101228.66;5061615;28;45497;-52
2022/04/18 11:47:35;;;;;;;;;6.40;3.00;;;;;40.71;8.52;101236.34;5058011;28;45384;-48
2022/04/18 11:50:03;;;;;;;;;4.80;3.40;;;;;40.00;8.68;101230.63;5057148;28;45463;-50
2022/04/18 11:52:37;;;;;;;;;2.60;2.00;;;;;39.09;9.03;101230.59;5057483;28;45205;-50
2022/04/18 11:55:17;;;;;;;;;4.00;4.00;;;;;37.94;9.51;101229.81;5057728;28;45342;-48